createdAt,value
2019-05-16T00:01:09.368Z,98134.16
2019-05-16T00:03:44.117Z,98134.16
2019-05-16T00:06:18.331Z,98130.34
2019-05-16T00:08:52.716Z,98130.34
2019-05-16T00:11:28.125Z,98129.27
2019-05-16T00:14:02.716Z,98122.98
2019-05-16T00:16:38.024Z,98125.26
2019-05-16T00:19:12.803Z,98110.55
2019-05-16T00:21:45.865Z,98109.94
2019-05-16T00:24:20.099Z,98112.81
2019-05-16T00:26:54.671Z,98110.37
2019-05-16T00:29:29.128Z,98103.31
2019-05-16T00:32:04.748Z,98102.82
2019-05-16T00:34:40.231Z,98104.07
2019-05-16T00:37:18.014Z,98098.22
2019-05-16T00:39:52.935Z,98097.77
2019-05-16T00:42:28.605Z,98097.00
2019-05-16T00:45:03.098Z,98089.93
2019-05-16T00:47:39.075Z,98090.88
2019-05-16T00:50:14.783Z,98076.14
2019-05-16T00:52:49.228Z,98076.14
2019-05-16T00:55:23.686Z,98082.44
2019-05-16T00:57:58.664Z,98081.22
2019-05-16T01:00:50.611Z,98078.13
2019-05-16T01:03:25.131Z,98074.02
2019-05-16T01:05:59.705Z,98071.55
2019-05-16T01:08:34.133Z,98065.27
2019-05-16T01:11:08.707Z,98064.80
2019-05-16T01:13:44.258Z,98060.66
2019-05-16T01:16:18.880Z,98051.72
2019-05-16T01:18:53.291Z,98041.59
2019-05-16T01:21:28.720Z,98043.75
2019-05-16T01:24:01.858Z,98037.45
2019-05-16T01:26:36.109Z,98042.21
2019-05-16T01:29:11.859Z,98043.30
2019-05-16T01:31:48.280Z,98043.30
2019-05-16T01:34:22.256Z,98043.60
2019-05-16T01:36:58.916Z,98043.60
2019-05-16T01:39:32.885Z,98046.06
2019-05-16T01:42:07.848Z,98042.53
2019-05-16T01:44:41.889Z,98035.31
2019-05-16T01:47:14.667Z,98037.45
2019-05-16T01:49:48.957Z,98032.27
2019-05-16T01:52:23.328Z,98016.73
2019-05-16T01:54:58.744Z,98026.23
2019-05-16T01:57:31.784Z,98026.52
2019-05-16T02:00:08.391Z,98023.32
2019-05-16T02:02:42.285Z,98014.88
2019-05-16T02:05:18.765Z,98014.88
2019-05-16T02:07:53.265Z,98011.82
2019-05-16T02:10:28.423Z,98011.82
2019-05-16T02:13:02.947Z,98003.53
2019-05-16T02:15:38.286Z,98004.47
2019-05-16T02:18:12.941Z,97997.53
2019-05-16T02:20:47.859Z,98001.06
2019-05-16T02:23:21.925Z,97999.84
2019-05-16T02:25:57.976Z,97999.83
2019-05-16T02:28:39.774Z,97994.59
2019-05-16T02:31:11.999Z,97994.59
2019-05-16T02:33:44.948Z,97993.05
2019-05-16T02:36:21.658Z,97987.67
2019-05-16T02:38:55.856Z,97983.98
2019-05-16T02:41:31.144Z,97980.44
2019-05-16T02:44:04.657Z,97977.19
2019-05-16T02:46:41.868Z,97973.80
2019-05-16T02:49:15.118Z,97974.55
2019-05-16T02:51:51.139Z,97972.84
2019-05-16T02:54:26.949Z,97970.86
2019-05-16T02:57:02.353Z,97969.30
2019-05-16T02:59:36.719Z,97963.01
2019-05-16T03:02:12.319Z,97954.72
2019-05-16T03:04:46.706Z,97958.67
2019-05-16T03:07:36.580Z,97954.06
2019-05-16T03:10:01.519Z,97946.38
2019-05-16T03:12:36.270Z,97945.44
2019-05-16T03:15:12.273Z,97941.80
2019-05-16T03:17:46.945Z,97938.89
2019-05-16T03:20:21.477Z,97931.86
2019-05-16T03:23:01.910Z,97931.22
2019-05-16T03:25:35.119Z,97931.38
2019-05-16T03:28:11.161Z,97917.29
2019-05-16T03:30:45.933Z,97909.28
2019-05-16T03:33:30.223Z,97909.09
2019-05-16T03:35:55.879Z,97910.04
2019-05-16T03:38:30.948Z,97903.93
2019-05-16T03:41:05.299Z,97903.93
2019-05-16T03:43:41.206Z,97905.75
2019-05-16T03:46:16.072Z,97904.06
2019-05-16T03:48:52.050Z,97892.89
2019-05-16T03:51:26.267Z,97892.89
2019-05-16T03:54:02.802Z,97901.02
2019-05-16T03:56:36.947Z,97897.33
2019-05-16T03:59:11.286Z,97898.09
2019-05-16T04:01:45.773Z,97893.62
2019-05-16T04:04:21.011Z,97891.78
2019-05-16T04:06:55.868Z,97890.09
2019-05-16T04:09:31.439Z,97885.93
2019-05-16T04:12:04.707Z,97881.36
2019-05-16T04:14:41.035Z,97877.05
2019-05-16T04:17:15.266Z,97872.57
2019-05-16T04:19:50.860Z,97875.61
2019-05-16T04:22:25.670Z,97853.70
2019-05-16T04:25:01.940Z,97853.70
2019-05-16T04:27:36.115Z,97853.48
2019-05-16T04:30:11.896Z,97851.34
2019-05-16T04:32:46.661Z,97851.17
2019-05-16T04:35:21.623Z,97854.66
2019-05-16T04:37:56.072Z,97857.91
2019-05-16T04:40:31.137Z,97856.25
2019-05-16T04:43:05.665Z,97856.25
2019-05-16T04:45:41.373Z,97851.36
2019-05-16T04:48:15.931Z,97851.37
2019-05-16T04:50:51.586Z,97852.11
2019-05-16T04:53:24.889Z,97850.25
2019-05-16T04:56:01.400Z,97847.77
2019-05-16T04:58:33.884Z,97850.08
2019-05-16T05:01:07.085Z,97847.05
2019-05-16T05:03:58.491Z,97840.92
2019-05-16T05:06:15.885Z,97841.04
2019-05-16T05:08:57.935Z,97841.04
2019-05-16T05:11:25.935Z,97836.73
2019-05-16T05:14:00.958Z,97840.71
2019-05-16T05:16:35.769Z,97840.53
2019-05-16T05:19:10.925Z,97842.70
2019-05-16T05:21:45.568Z,97848.41
2019-05-16T05:24:19.932Z,97848.41
2019-05-16T05:26:54.267Z,97849.03
2019-05-16T05:29:30.698Z,97846.11
2019-05-16T05:32:05.399Z,97844.27
2019-05-16T05:34:39.976Z,97842.98
2019-05-16T05:37:14.320Z,97842.35
2019-05-16T05:39:50.408Z,97842.35
2019-05-16T05:42:24.878Z,97842.53
2019-05-16T05:45:00.149Z,97843.07
2019-05-16T05:47:33.656Z,97844.56
2019-05-16T05:50:10.860Z,97849.06
2019-05-16T05:52:46.291Z,97843.84
2019-05-16T05:55:20.940Z,97844.97
2019-05-16T05:57:53.855Z,97843.77
2019-05-16T06:00:30.399Z,97843.59
2019-05-16T06:03:04.259Z,97847.09
2019-05-16T06:05:41.094Z,97846.80
2019-05-16T06:08:14.933Z,97846.36
2019-05-16T06:10:50.112Z,97846.52
2019-05-16T06:13:23.938Z,97830.59
2019-05-16T06:16:00.110Z,97831.66
2019-05-16T06:18:32.656Z,97816.92
2019-05-16T06:21:06.939Z,97809.30
2019-05-16T06:23:40.304Z,97806.81
2019-05-16T06:26:14.698Z,97806.81
2019-05-16T06:28:50.415Z,97807.76
2019-05-16T06:31:25.067Z,97808.04
2019-05-16T06:34:06.887Z,97812.08
2019-05-16T06:36:35.347Z,97811.02
2019-05-16T06:39:11.443Z,97811.02
2019-05-16T06:41:45.948Z,97809.48
2019-05-16T06:44:20.387Z,97809.16
2019-05-16T06:47:10.061Z,97809.03
2019-05-16T06:49:30.945Z,97805.06
2019-05-16T06:52:03.720Z,97807.67
2019-05-16T06:54:40.555Z,97807.72
2019-05-16T06:57:14.067Z,97809.12
2019-05-16T06:59:50.014Z,97801.91
2019-05-16T07:02:30.303Z,97798.34
2019-05-16T07:05:01.275Z,97798.34
2019-05-16T07:07:35.755Z,97801.75
2019-05-16T07:10:10.653Z,97795.94
2019-05-16T07:12:45.285Z,97803.92
2019-05-16T07:15:20.861Z,97803.92
2019-05-16T07:17:55.253Z,97806.05
2019-05-16T07:20:30.176Z,97803.29
2019-05-16T07:23:04.715Z,97809.87
2019-05-16T07:25:40.745Z,97807.88
2019-05-16T07:28:15.120Z,97804.80
2019-05-16T07:30:50.058Z,97795.94
2019-05-16T07:33:25.772Z,97795.94
2019-05-16T07:36:00.507Z,97794.24
2019-05-16T07:38:34.948Z,97793.50
2019-05-16T07:41:11.155Z,97785.67
2019-05-16T07:43:45.108Z,97788.59
2019-05-16T07:46:20.573Z,97783.97
2019-05-16T07:48:53.701Z,97784.91
2019-05-16T07:51:27.945Z,97787.66
2019-05-16T07:54:00.855Z,97781.05
2019-05-16T07:56:35.111Z,97781.21
2019-05-16T07:59:10.387Z,97776.63
2019-05-16T08:01:44.916Z,97760.06
2019-05-16T08:04:19.760Z,97773.99
2019-05-16T08:06:53.689Z,97771.87
2019-05-16T08:09:30.437Z,97774.02
2019-05-16T08:12:05.872Z,97766.51
2019-05-16T08:14:40.937Z,97771.26
2019-05-16T08:17:15.288Z,97775.37
2019-05-16T08:19:50.631Z,97775.37
2019-05-16T08:22:25.301Z,97768.05
2019-05-16T08:25:00.288Z,97759.59
2019-05-16T08:27:34.876Z,97760.22
2019-05-16T08:30:11.034Z,97762.97
2019-05-16T08:32:45.309Z,97763.59
2019-05-16T08:35:21.247Z,97762.06
2019-05-16T08:37:55.955Z,97763.29
2019-05-16T08:40:31.640Z,97764.34
2019-05-16T08:43:04.816Z,97771.40
2019-05-16T08:45:41.761Z,97766.81
2019-05-16T08:48:14.939Z,97760.05
2019-05-16T08:50:53.836Z,97762.80
2019-05-16T08:53:24.787Z,97764.05
2019-05-16T08:55:57.860Z,97765.73
2019-05-16T08:58:33.244Z,97767.11
2019-05-16T09:01:07.918Z,97763.44
2019-05-16T09:03:42.277Z,97758.66
2019-05-16T09:06:16.714Z,97753.61
2019-05-16T09:08:51.427Z,97755.91
2019-05-16T09:11:35.609Z,97755.45
2019-05-16T09:14:02.016Z,97749.14
2019-05-16T09:16:37.249Z,97750.38
2019-05-16T09:19:11.869Z,97747.77
2019-05-16T09:21:47.323Z,97740.22
2019-05-16T09:24:20.702Z,97737.76
2019-05-16T09:26:57.671Z,97728.50
2019-05-16T09:29:29.655Z,97730.05
2019-05-16T09:32:12.640Z,97732.66
2019-05-16T09:34:40.950Z,97730.64
2019-05-16T09:37:17.696Z,97731.09
2019-05-16T09:39:51.610Z,97727.52
2019-05-16T09:42:27.680Z,97727.52
2019-05-16T09:45:00.639Z,97731.94
2019-05-16T09:47:34.941Z,97738.21
2019-05-16T09:50:12.574Z,97744.80
2019-05-16T09:52:47.365Z,97727.77
2019-05-16T09:55:22.262Z,97728.66
2019-05-16T09:57:58.565Z,97728.66
2019-05-16T10:00:33.585Z,97722.27
2019-05-16T10:03:08.147Z,97727.83
2019-05-16T10:05:42.653Z,97727.67
2019-05-16T10:08:17.481Z,97722.76
2019-05-16T10:10:52.987Z,97722.55
2019-05-16T10:13:27.851Z,97721.34
2019-05-16T10:16:02.633Z,97719.70
2019-05-16T10:18:37.184Z,97719.70
2019-05-16T10:21:11.665Z,97717.22
2019-05-16T10:23:46.967Z,97717.22
2019-05-16T10:26:21.712Z,97711.85
2019-05-16T10:28:57.836Z,97711.85
2019-05-16T10:31:45.068Z,97715.55
2019-05-16T10:34:09.143Z,97718.55
2019-05-16T10:36:43.352Z,97715.05
2019-05-16T10:39:17.870Z,97715.05
2019-05-16T10:41:52.319Z,97707.71
2019-05-16T10:44:28.600Z,97710.98
2019-05-16T10:47:03.111Z,97705.17
2019-05-16T10:49:41.454Z,97697.52
2019-05-16T10:52:16.433Z,97702.25
2019-05-16T10:54:57.550Z,97696.60
2019-05-16T10:57:29.380Z,97698.59
2019-05-16T11:00:13.059Z,97689.07
2019-05-16T11:02:38.702Z,97687.06
2019-05-16T11:05:25.697Z,97687.06
2019-05-16T11:07:52.316Z,97689.77
2019-05-16T11:10:22.876Z,97683.58
2019-05-16T11:12:59.503Z,97686.80
2019-05-16T11:15:31.695Z,97686.80
2019-05-16T11:18:06.862Z,97689.43
2019-05-16T11:20:44.843Z,97680.77
2019-05-16T11:23:23.435Z,97680.77
2019-05-16T11:25:55.385Z,97675.70
2019-05-16T11:28:29.713Z,97675.70
2019-05-16T11:32:33.277Z,97677.31
2019-05-16T11:35:08.287Z,97679.74
2019-05-16T11:37:42.702Z,97677.91
2019-05-16T11:40:17.940Z,97677.91
2019-05-16T11:43:06.646Z,97676.31
2019-05-16T11:45:28.316Z,97672.48
2019-05-16T11:48:02.946Z,97672.48
2019-05-16T11:50:37.468Z,97678.54
2019-05-16T11:53:11.961Z,97677.67
2019-05-16T11:55:54.765Z,97673.52
2019-05-16T11:58:22.306Z,97672.07
2019-05-16T12:00:57.546Z,97675.45
2019-05-16T12:03:30.704Z,97668.83
2019-05-16T12:06:05.521Z,97663.88
2019-05-16T12:08:41.073Z,97666.11
2019-05-16T12:11:17.672Z,97662.48
2019-05-16T12:13:51.303Z,97663.97
2019-05-16T12:16:27.594Z,97663.97
2019-05-16T12:19:01.956Z,97667.78
2019-05-16T12:21:34.867Z,97662.05
2019-05-16T12:24:09.219Z,97659.69
2019-05-16T12:26:43.642Z,97661.94
2019-05-16T12:29:18.122Z,97665.77
2019-05-16T12:31:57.831Z,97665.03
2019-05-16T12:34:28.733Z,97665.03
2019-05-16T12:37:03.101Z,97661.48
2019-05-16T12:39:38.051Z,97664.44
2019-05-16T12:42:12.593Z,97664.70
2019-05-16T12:44:46.996Z,97664.70
2019-05-16T12:47:21.491Z,97656.35
2019-05-16T12:49:56.635Z,97656.35
2019-05-16T12:52:29.705Z,97662.19
2019-05-16T12:55:03.948Z,97659.50
2019-05-16T12:57:38.235Z,97662.23
2019-05-16T13:00:15.759Z,97663.23
2019-05-16T13:02:51.105Z,97659.86
2019-05-16T13:05:26.896Z,97662.17
2019-05-16T13:08:01.319Z,97669.97
2019-05-16T13:10:37.927Z,97648.89
2019-05-16T13:13:12.725Z,97658.59
2019-05-16T13:15:47.596Z,97658.59
2019-05-16T13:18:21.630Z,97661.61
2019-05-16T13:20:57.337Z,97661.61
2019-05-16T13:23:31.940Z,97667.05
2019-05-16T13:26:07.735Z,97666.88
2019-05-16T13:28:42.119Z,97659.13
2019-05-16T13:31:17.142Z,97649.34
2019-05-16T13:33:51.770Z,97649.34
2019-05-16T13:36:27.201Z,97654.73
2019-05-16T13:39:01.709Z,97643.30
2019-05-16T13:41:37.923Z,97638.34
2019-05-16T13:44:18.356Z,97643.88
2019-05-16T13:46:48.690Z,97643.88
2019-05-16T13:49:23.117Z,97643.36
2019-05-16T13:51:57.634Z,97650.28
2019-05-16T13:54:32.280Z,97650.28
2019-05-16T13:57:07.099Z,97646.48
2019-05-16T13:59:41.628Z,97644.80
2019-05-16T14:02:17.438Z,97644.80
2019-05-16T14:04:51.938Z,97638.23
2019-05-16T14:07:26.313Z,97641.20
2019-05-16T14:10:00.721Z,97641.80
2019-05-16T14:12:36.501Z,97641.80
2019-05-16T14:15:10.865Z,97638.50
2019-05-16T14:17:43.855Z,97635.39
2019-05-16T14:20:18.859Z,97637.70
2019-05-16T14:22:53.184Z,97634.64
2019-05-16T14:25:27.658Z,97632.89
2019-05-16T14:28:01.948Z,97632.89
2019-05-16T14:30:37.291Z,97630.32
2019-05-16T14:33:14.112Z,97630.59
2019-05-16T14:35:47.383Z,97629.10
2019-05-16T14:38:21.924Z,97627.92
2019-05-16T14:40:57.311Z,97627.82
2019-05-16T14:43:31.942Z,97625.50
2019-05-16T14:46:09.372Z,97623.97
2019-05-16T14:48:42.280Z,97626.31
2019-05-16T14:51:17.944Z,97632.74
2019-05-16T14:53:52.675Z,97632.22
2019-05-16T14:56:27.601Z,97631.11
2019-05-16T14:59:02.134Z,97630.02
2019-05-16T15:01:37.877Z,97631.03
2019-05-16T15:04:12.310Z,97631.03
2019-05-16T15:06:47.131Z,97630.50
2019-05-16T15:09:21.758Z,97628.13
2019-05-16T15:11:57.886Z,97631.98
2019-05-16T15:14:30.721Z,97631.98
2019-05-16T15:17:07.057Z,97629.31
2019-05-16T15:19:41.302Z,97631.61
2019-05-16T15:22:16.801Z,97628.33
2019-05-16T15:24:49.707Z,97626.95
2019-05-16T15:27:26.239Z,97633.58
2019-05-16T15:29:58.704Z,97633.87
2019-05-16T15:32:33.284Z,97633.87
2019-05-16T15:35:08.362Z,97627.17
2019-05-16T15:37:43.285Z,97619.30
2019-05-16T15:40:18.278Z,97619.30
2019-05-16T15:42:52.939Z,97619.72
2019-05-16T15:45:43.446Z,97610.99
2019-05-16T15:48:17.218Z,97612.03
2019-05-16T15:50:52.135Z,97612.03
2019-05-16T15:53:28.005Z,97608.44
2019-05-16T15:56:02.715Z,97604.05
2019-05-16T15:58:37.394Z,97604.05
2019-05-16T16:01:11.791Z,97604.25
2019-05-16T16:03:47.378Z,97602.42
2019-05-16T16:06:21.726Z,97600.77
2019-05-16T16:08:54.673Z,97597.27
2019-05-16T16:11:28.946Z,97598.94
2019-05-16T16:14:03.286Z,97599.80
2019-05-16T16:16:37.947Z,97596.88
2019-05-16T16:19:12.643Z,97601.71
2019-05-16T16:21:47.450Z,97601.71
2019-05-16T16:24:22.935Z,97598.09
2019-05-16T16:26:57.336Z,97600.47
2019-05-16T16:29:33.208Z,97604.80
2019-05-16T16:32:07.926Z,97595.11
2019-05-16T16:34:41.086Z,97601.24
2019-05-16T16:37:13.891Z,97602.48
2019-05-16T16:39:47.268Z,97605.72
2019-05-16T16:42:21.706Z,97604.69
2019-05-16T16:44:56.568Z,97606.39
2019-05-16T16:47:31.109Z,97609.78
2019-05-16T16:50:07.878Z,97612.55
2019-05-16T16:52:41.936Z,97610.34
2019-05-16T16:55:16.965Z,97606.19
2019-05-16T16:57:50.954Z,97609.02
2019-05-16T17:00:24.295Z,97614.38
2019-05-16T17:03:05.677Z,97616.30
2019-05-16T17:05:37.029Z,97614.76
2019-05-16T17:08:10.907Z,97616.14
2019-05-16T17:10:44.079Z,97617.70
2019-05-16T17:13:18.276Z,97607.98
2019-05-16T17:15:52.760Z,97612.50
2019-05-16T17:18:27.575Z,97605.81
2019-05-16T17:21:02.244Z,97610.83
2019-05-16T17:23:37.130Z,97607.48
2019-05-16T17:26:11.681Z,97601.48
2019-05-16T17:28:46.815Z,97601.48
2019-05-16T17:31:22.260Z,97599.41
2019-05-16T17:33:57.723Z,97590.19
2019-05-16T17:36:32.290Z,97589.77
2019-05-16T17:39:07.934Z,97595.44
2019-05-16T17:41:42.284Z,97594.64
2019-05-16T17:44:17.692Z,97601.83
2019-05-16T17:46:53.000Z,97590.48
2019-05-16T17:49:27.653Z,97592.87
2019-05-16T17:52:02.138Z,97592.87
2019-05-16T17:54:37.341Z,97593.70
2019-05-16T17:57:11.954Z,97590.16
2019-05-16T17:59:47.988Z,97592.34
2019-05-16T18:02:22.800Z,97590.25
2019-05-16T18:04:57.116Z,97590.25
2019-05-16T18:07:31.804Z,97592.25
2019-05-16T18:10:07.262Z,97593.22
2019-05-16T18:12:40.935Z,97597.38
2019-05-16T18:15:15.716Z,97586.35
2019-05-16T18:17:50.276Z,97590.68
2019-05-16T18:20:26.593Z,97593.59
2019-05-16T18:23:00.898Z,97601.19
2019-05-16T18:25:36.362Z,97588.73
2019-05-16T18:28:09.950Z,97602.19
2019-05-16T18:30:42.871Z,97603.42
2019-05-16T18:33:17.132Z,97608.34
2019-05-16T18:35:51.692Z,97608.95
2019-05-16T18:38:26.494Z,97608.95
2019-05-16T18:41:01.294Z,97601.81
2019-05-16T18:43:36.432Z,97601.94
2019-05-16T18:46:11.143Z,97605.20
2019-05-16T18:48:47.146Z,97600.65
2019-05-16T18:51:22.001Z,97600.65
2019-05-16T18:53:57.033Z,97604.39
2019-05-16T18:56:31.698Z,97601.31
2019-05-16T18:59:06.285Z,97601.31
2019-05-16T19:01:40.762Z,97601.47
2019-05-16T19:04:13.799Z,97603.67
2019-05-16T19:06:48.286Z,97605.22
2019-05-16T19:09:22.794Z,97599.83
2019-05-16T19:11:59.270Z,97598.18
2019-05-16T19:14:33.265Z,97598.95
2019-05-16T19:17:20.729Z,97594.20
2019-05-16T19:19:43.798Z,97594.55
2019-05-16T19:22:18.292Z,97594.55
2019-05-16T19:24:52.715Z,97594.05
2019-05-16T19:27:26.213Z,97589.33
2019-05-16T19:30:01.718Z,97594.81
2019-05-16T19:32:39.621Z,97600.41
2019-05-16T19:35:16.336Z,97597.33
2019-05-16T19:37:50.298Z,97599.78
2019-05-16T19:40:25.265Z,97595.33
2019-05-16T19:42:59.728Z,97598.45
2019-05-16T19:45:32.869Z,97596.56
2019-05-16T19:48:07.648Z,97595.18
2019-05-16T19:50:42.283Z,97592.56
2019-05-16T19:53:16.738Z,97593.37
2019-05-16T19:55:51.289Z,97595.68
2019-05-16T19:58:26.635Z,97599.98
2019-05-16T20:00:59.914Z,97595.06
2019-05-16T20:03:32.764Z,97596.10
2019-05-16T20:06:07.677Z,97594.87
2019-05-16T20:08:43.294Z,97588.56
2019-05-16T20:11:17.957Z,97586.71
2019-05-16T20:13:52.300Z,97583.17
2019-05-16T20:16:27.281Z,97584.86
2019-05-16T20:19:02.163Z,97582.56
2019-05-16T20:21:37.060Z,97582.11
2019-05-16T20:24:11.675Z,97578.41
2019-05-16T20:26:46.720Z,97578.41
2019-05-16T20:29:19.868Z,97575.02
2019-05-16T20:31:56.427Z,97569.02
2019-05-16T20:34:30.409Z,97570.52
2019-05-16T20:37:06.109Z,97570.25
2019-05-16T20:39:41.292Z,97566.72
2019-05-16T20:42:17.092Z,97573.02
2019-05-16T20:44:51.653Z,97577.84
2019-05-16T20:47:27.168Z,97577.84
2019-05-16T20:50:01.703Z,97572.47
2019-05-16T20:52:37.932Z,97580.05
2019-05-16T20:55:12.947Z,97569.50
2019-05-16T20:57:48.461Z,97569.50
2019-05-16T21:00:23.544Z,97571.03
2019-05-16T21:02:57.960Z,97571.50
2019-05-16T21:05:32.214Z,97571.50
2019-05-16T21:08:06.932Z,97576.10
2019-05-16T21:10:46.350Z,97572.73
2019-05-16T21:13:20.138Z,97572.78
2019-05-16T21:15:54.877Z,97570.36
2019-05-16T21:18:29.285Z,97570.63
2019-05-16T21:21:03.784Z,97572.02
2019-05-16T21:23:38.143Z,97568.02
2019-05-16T21:26:12.667Z,97564.63
2019-05-16T21:28:47.084Z,97563.25
2019-05-16T21:31:21.688Z,97562.33
2019-05-16T21:33:56.538Z,97553.87
2019-05-16T21:36:31.286Z,97558.18
2019-05-16T21:39:08.595Z,97562.06
2019-05-16T21:41:41.707Z,97556.03
2019-05-16T21:44:17.097Z,97556.38
2019-05-16T21:46:53.503Z,97556.38
2019-05-16T21:49:27.959Z,97553.45
2019-05-16T21:52:02.282Z,97560.53
2019-05-16T21:54:36.895Z,97552.84
2019-05-16T21:57:10.036Z,97556.38
2019-05-16T21:59:44.262Z,97550.50
2019-05-16T22:02:18.898Z,97550.99
2019-05-16T22:04:53.348Z,97547.31
2019-05-16T22:07:33.596Z,97547.31
2019-05-16T22:10:06.315Z,97548.08
2019-05-16T22:12:41.962Z,97550.23
2019-05-16T22:15:17.308Z,97545.33
2019-05-16T22:17:53.125Z,97547.36
2019-05-16T22:20:27.891Z,97544.44
2019-05-16T22:23:02.286Z,97544.44
2019-05-16T22:25:37.922Z,97545.98
2019-05-16T22:28:12.284Z,97545.10
2019-05-16T22:30:46.755Z,97546.95
2019-05-16T22:33:21.276Z,97546.19
2019-05-16T22:35:57.629Z,97540.08
2019-05-16T22:38:31.961Z,97550.23
2019-05-16T22:41:07.331Z,97543.31
2019-05-16T22:43:42.360Z,97549.41
2019-05-16T22:46:17.775Z,97549.56
2019-05-16T22:48:52.719Z,97544.95
2019-05-16T22:51:27.329Z,97544.34
2019-05-16T22:54:01.900Z,97537.27
2019-05-16T22:56:37.563Z,97544.65
2019-05-16T22:59:12.283Z,97540.03
2019-05-16T23:01:46.797Z,97545.22
2019-05-16T23:04:19.880Z,97545.38
2019-05-16T23:06:52.705Z,97536.80
2019-05-16T23:09:27.304Z,97536.45
2019-05-16T23:12:01.960Z,97538.45
2019-05-16T23:14:36.280Z,97539.37
2019-05-16T23:17:11.287Z,97542.61
2019-05-16T23:19:47.431Z,97535.84
2019-05-16T23:22:22.265Z,97538.75
2019-05-16T23:24:58.176Z,97535.94
2019-05-16T23:27:32.659Z,97529.42
2019-05-16T23:30:08.126Z,97527.58
2019-05-16T23:32:42.705Z,97527.58
2019-05-16T23:35:17.310Z,97518.45
2019-05-16T23:37:51.709Z,97527.52
2019-05-16T23:40:24.864Z,97520.61
2019-05-16T23:42:59.403Z,97519.49
2019-05-16T23:45:34.124Z,97519.49
2019-05-16T23:48:10.357Z,97521.64
2019-05-16T23:50:47.325Z,97521.64
2019-05-16T23:53:21.297Z,97523.64
2019-05-16T23:55:56.761Z,97518.41
2019-05-16T23:58:31.263Z,97515.34
